createdAt,value
2023-03-13T00:02:33.354Z,97459.72
2023-03-13T00:06:40.251Z,97454.09
2023-03-13T00:10:43.733Z,97445.97
2023-03-13T00:14:46.984Z,97447.19
2023-03-13T00:18:51.967Z,97432.88
2023-03-13T00:22:56.745Z,97431.38
2023-03-13T00:27:03.341Z,97432.59
2023-03-13T00:31:08.513Z,97424.16
2023-03-13T00:35:11.602Z,97427.81
2023-03-13T00:39:18.652Z,97423.75
2023-03-13T00:43:21.752Z,97418.00
2023-03-13T00:47:24.992Z,97405.38
2023-03-13T00:51:29.081Z,97391.09
2023-03-13T00:55:33.780Z,97389.72
2023-03-13T00:59:36.990Z,97380.88
2023-03-13T01:03:41.583Z,97382.34
2023-03-13T01:07:45.028Z,97377.72
2023-03-13T01:11:50.520Z,97365.31
2023-03-13T01:15:53.749Z,97359.75
2023-03-13T01:19:57.874Z,97349.94
2023-03-13T01:24:01.333Z,97358.03
2023-03-13T01:28:06.426Z,97354.75
2023-03-13T01:32:09.515Z,97356.81
2023-03-13T01:36:13.876Z,97349.31
2023-03-13T01:40:17.114Z,97350.94
2023-03-13T01:44:25.636Z,97343.19
2023-03-13T01:48:37.023Z,97329.78
2023-03-13T01:52:40.297Z,97321.59
2023-03-13T01:56:48.762Z,97331.63
2023-03-13T02:00:53.660Z,97336.31
2023-03-13T02:05:00.417Z,97320.69
2023-03-13T02:09:06.865Z,97324.06
2023-03-13T02:13:14.251Z,97314.16
2023-03-13T02:17:19.597Z,97319.59
2023-03-13T02:21:36.275Z,97316.31
2023-03-13T02:25:45.348Z,97313.84
2023-03-13T02:29:48.888Z,97313.06
2023-03-13T02:33:52.411Z,97313.06
2023-03-13T02:37:59.072Z,97310.47
2023-03-13T02:42:05.080Z,97313.19
2023-03-13T02:46:11.645Z,97302.16
2023-03-13T02:50:15.916Z,97302.41
2023-03-13T02:54:22.804Z,97303.50
2023-03-13T02:58:27.535Z,97306.34
2023-03-13T03:02:30.740Z,97302.38
2023-03-13T03:06:33.985Z,97303.44
2023-03-13T03:10:38.322Z,97309.41
2023-03-13T03:14:42.663Z,97306.47
2023-03-13T03:18:46.319Z,97310.53
2023-03-13T03:22:49.445Z,97313.81
2023-03-13T03:26:52.675Z,97319.38
2023-03-13T03:30:57.603Z,97321.72
2023-03-13T03:35:00.952Z,97322.41
2023-03-13T03:39:04.055Z,97335.16
2023-03-13T03:43:07.745Z,97333.38
2023-03-13T03:47:14.375Z,97340.44
2023-03-13T03:51:17.870Z,97338.13
2023-03-13T03:55:21.171Z,97331.59
2023-03-13T03:59:24.609Z,97343.09
2023-03-13T04:03:29.313Z,97334.94
2023-03-13T04:07:32.556Z,97324.19
2023-03-13T04:11:35.851Z,97316.13
2023-03-13T04:15:39.948Z,97319.34
2023-03-13T04:19:44.826Z,97322.56
2023-03-13T04:23:48.041Z,97325.75
2023-03-13T04:27:51.135Z,97316.06
2023-03-13T04:31:54.336Z,97315.75
2023-03-13T04:35:59.031Z,97316.94
2023-03-13T04:40:03.067Z,97317.16
2023-03-13T04:44:06.072Z,97315.53
2023-03-13T04:48:09.453Z,97318.59
2023-03-13T04:52:15.925Z,97300.88
2023-03-13T04:56:41.195Z,97303.78
2023-03-13T05:00:45.621Z,97292.94
2023-03-13T05:04:50.578Z,97294.91
2023-03-13T05:08:56.580Z,97296.59
2023-03-13T05:12:59.737Z,97294.66
2023-03-13T05:17:02.985Z,97297.59
2023-03-13T05:21:06.849Z,97290.19
2023-03-13T05:25:11.914Z,97287.28
2023-03-13T05:29:15.180Z,97285.25
2023-03-13T05:33:19.770Z,97289.53
2023-03-13T05:37:23.043Z,97288.19
2023-03-13T05:41:27.631Z,97297.97
2023-03-13T05:45:31.231Z,97297.72
2023-03-13T05:49:34.338Z,97288.63
2023-03-13T05:53:39.201Z,97293.25
2023-03-13T05:57:47.788Z,97283.22
2023-03-13T06:01:51.132Z,97279.31
2023-03-13T06:05:59.054Z,97279.31
2023-03-13T06:10:02.424Z,97282.00
2023-03-13T06:14:06.639Z,97275.09
2023-03-13T06:18:09.841Z,97264.06
2023-03-13T06:22:13.055Z,97256.31
2023-03-13T06:26:16.798Z,97262.97
2023-03-13T06:30:30.401Z,97255.75
2023-03-13T06:34:33.686Z,97256.25
2023-03-13T06:38:37.061Z,97250.63
2023-03-13T06:42:40.130Z,97243.38
2023-03-13T06:46:44.563Z,97250.66
2023-03-13T06:50:47.964Z,97253.88
2023-03-13T06:54:51.125Z,97247.59
2023-03-13T06:58:54.372Z,97241.09
2023-03-13T07:02:58.720Z,97222.31
2023-03-13T07:07:01.903Z,97223.59
2023-03-13T07:11:06.950Z,97221.34
2023-03-13T07:15:11.732Z,97211.00
2023-03-13T07:19:17.985Z,97211.19
2023-03-13T07:23:21.463Z,97217.19
2023-03-13T07:27:24.686Z,97218.94
2023-03-13T07:31:28.376Z,97220.19
2023-03-13T07:35:32.743Z,97200.66
2023-03-13T07:39:36.480Z,97196.94
2023-03-13T07:43:39.366Z,97208.50
2023-03-13T07:47:42.517Z,97217.28
2023-03-13T07:51:48.341Z,97195.47
2023-03-13T07:55:59.461Z,97167.06
2023-03-13T08:00:05.516Z,97169.03
2023-03-13T08:04:08.867Z,97175.53
2023-03-13T08:08:13.318Z,97174.03
2023-03-13T08:12:16.536Z,97187.97
2023-03-13T08:16:21.742Z,97186.25
2023-03-13T08:20:25.025Z,97194.00
2023-03-13T08:24:29.417Z,97187.72
2023-03-13T08:28:32.651Z,97184.19
2023-03-13T08:32:36.003Z,97168.06
2023-03-13T08:36:39.670Z,97149.88
2023-03-13T08:40:43.899Z,97146.06
2023-03-13T08:44:46.835Z,97138.28
2023-03-13T08:48:51.145Z,97142.19
2023-03-13T08:52:54.322Z,97160.94
2023-03-13T08:56:59.930Z,97164.72
2023-03-13T09:01:04.788Z,97182.91
2023-03-13T09:05:09.278Z,97180.03
2023-03-13T09:09:13.320Z,97173.19
2023-03-13T09:13:17.806Z,97162.38
2023-03-13T09:17:21.562Z,97155.94
2023-03-13T09:21:26.491Z,97144.09
2023-03-13T09:25:29.868Z,97157.66
2023-03-13T09:29:38.163Z,97151.06
2023-03-13T09:37:50.214Z,97134.88
2023-03-13T09:41:58.972Z,97139.22
2023-03-13T09:46:07.910Z,97113.78
2023-03-13T09:50:16.167Z,97109.22
2023-03-13T09:54:26.515Z,97101.84
2023-03-13T09:58:32.902Z,97079.53
2023-03-13T10:02:38.714Z,97108.63
2023-03-13T10:06:45.728Z,97089.81
2023-03-13T10:10:55.444Z,97075.81
2023-03-13T10:15:39.116Z,97078.28
2023-03-13T10:19:44.819Z,97077.25
2023-03-13T10:23:53.796Z,97088.75
2023-03-13T10:27:58.637Z,97084.34
2023-03-13T10:32:03.141Z,97074.28
2023-03-13T10:36:10.547Z,97067.66
2023-03-13T10:40:15.757Z,97058.97
2023-03-13T10:44:21.326Z,97072.94
2023-03-13T10:48:26.558Z,97057.19
2023-03-13T10:52:35.362Z,97058.28
2023-03-13T10:56:38.354Z,97060.19
2023-03-13T11:00:42.973Z,97030.84
2023-03-13T11:04:49.484Z,97024.44
2023-03-13T11:09:00.884Z,97023.84
2023-03-13T11:13:04.629Z,97030.53
2023-03-13T11:17:16.548Z,97021.91
2023-03-13T11:21:25.840Z,97008.38
2023-03-13T11:25:37.761Z,96995.88
2023-03-13T11:29:50.484Z,97003.94
2023-03-13T11:33:59.562Z,96996.47
2023-03-13T11:38:08.726Z,96990.22
2023-03-13T11:42:34.448Z,96990.22
2023-03-13T11:46:51.056Z,96977.69
2023-03-13T11:51:00.195Z,96974.41
2023-03-13T11:55:30.915Z,96955.75
2023-03-13T11:59:43.941Z,96954.13
2023-03-13T12:03:58.091Z,96942.31
2023-03-13T12:08:05.263Z,96938.81
2023-03-13T12:12:19.577Z,96923.03
2023-03-13T12:16:32.191Z,96910.19
2023-03-13T12:20:40.814Z,96912.56
2023-03-13T12:24:51.755Z,96903.78
2023-03-13T12:29:07.668Z,96896.56
2023-03-13T12:33:23.626Z,96895.06
2023-03-13T12:37:35.746Z,96876.59
2023-03-13T12:41:43.640Z,96869.53
2023-03-13T12:46:04.248Z,96858.66
2023-03-13T12:50:32.789Z,96852.53
2023-03-13T12:54:48.959Z,96846.88
2023-03-13T12:58:56.187Z,96840.06
2023-03-13T13:03:17.938Z,96829.97
2023-03-13T13:07:26.818Z,96829.41
2023-03-13T13:11:58.141Z,96815.75
2023-03-13T13:16:03.625Z,96805.66
2023-03-13T13:20:38.146Z,96803.94
2023-03-13T13:24:50.228Z,96800.16
2023-03-13T13:28:54.031Z,96786.81
2023-03-13T13:33:18.655Z,96775.34
2023-03-13T13:37:30.831Z,96767.81
2023-03-13T13:42:20.077Z,96761.38
2023-03-13T13:46:29.413Z,96763.72
2023-03-13T13:50:32.992Z,96762.66
2023-03-13T13:54:56.772Z,96749.72
2023-03-13T13:59:03.678Z,96740.47
2023-03-13T14:03:20.686Z,96739.69
2023-03-13T14:07:30.794Z,96732.53
2023-03-13T14:11:38.459Z,96735.13
2023-03-13T14:15:45.490Z,96728.06
2023-03-13T14:19:51.212Z,96717.38
2023-03-13T14:23:54.665Z,96711.69
2023-03-13T14:27:58.133Z,96718.72
2023-03-13T14:32:01.915Z,96703.94
2023-03-13T14:36:07.569Z,96700.50
2023-03-13T14:40:20.607Z,96691.28
2023-03-13T14:44:26.505Z,96702.44
2023-03-13T14:48:32.906Z,96698.34
2023-03-13T14:52:40.236Z,96696.78
2023-03-13T14:56:43.894Z,96694.00
2023-03-13T15:00:49.078Z,96687.47
2023-03-13T15:04:59.546Z,96683.09
2023-03-13T15:09:20.447Z,96674.38
2023-03-13T15:13:26.269Z,96662.41
2023-03-13T15:17:30.394Z,96656.69
2023-03-13T15:21:35.733Z,96651.63
2023-03-13T15:25:41.143Z,96648.69
2023-03-13T15:29:44.801Z,96644.00
2023-03-13T15:33:47.811Z,96642.44
2023-03-13T15:37:51.008Z,96642.13
2023-03-13T15:41:56.397Z,96633.81
2023-03-13T15:46:00.014Z,96631.09
2023-03-13T15:50:03.056Z,96623.25
2023-03-13T15:54:06.688Z,96624.81
2023-03-13T15:58:13.457Z,96624.72
2023-03-13T16:02:19.048Z,96624.09
2023-03-13T16:06:31.251Z,96616.81
2023-03-13T16:10:35.310Z,96604.06
2023-03-13T16:14:40.893Z,96588.50
2023-03-13T16:18:44.032Z,96575.00
2023-03-13T16:22:47.950Z,96551.34
2023-03-13T16:26:51.202Z,96537.97
2023-03-13T16:30:57.451Z,96530.88
2023-03-13T16:35:00.849Z,96535.50
2023-03-13T16:39:09.429Z,96532.38
2023-03-13T16:43:14.005Z,96532.47
2023-03-13T16:47:23.513Z,96514.25
2023-03-13T16:51:28.709Z,96504.09
2023-03-13T16:55:37.007Z,96491.06
2023-03-13T16:59:40.564Z,96485.78
2023-03-13T17:03:44.861Z,96472.41
2023-03-13T17:07:50.257Z,96466.13
2023-03-13T17:11:53.659Z,96467.88
2023-03-13T17:15:57.101Z,96442.63
2023-03-13T17:20:01.969Z,96434.69
2023-03-13T17:24:07.597Z,96432.00
2023-03-13T17:28:14.515Z,96417.56
2023-03-13T17:32:18.007Z,96411.03
2023-03-13T17:36:24.817Z,96405.84
2023-03-13T17:40:31.471Z,96403.88
2023-03-13T17:44:34.902Z,96390.44
2023-03-13T17:48:38.324Z,96388.47
2023-03-13T17:52:43.040Z,96385.25
2023-03-13T17:56:47.021Z,96378.00
2023-03-13T18:00:50.996Z,96370.78
2023-03-13T18:04:55.071Z,96367.41
2023-03-13T18:09:08.845Z,96352.75
2023-03-13T18:13:12.237Z,96359.22
2023-03-13T18:17:17.637Z,96338.53
2023-03-13T18:21:21.511Z,96329.34
2023-03-13T18:25:26.251Z,96339.97
2023-03-13T18:29:29.873Z,96330.72
2023-03-13T18:33:32.877Z,96314.28
2023-03-13T18:37:36.628Z,96307.28
2023-03-13T18:41:41.452Z,96297.44
2023-03-13T18:45:44.543Z,96297.84
2023-03-13T18:49:49.409Z,96281.75
2023-03-13T18:53:53.098Z,96268.91
2023-03-13T18:57:58.538Z,96255.25
2023-03-13T19:02:02.031Z,96241.22
2023-03-13T19:06:17.864Z,96233.19
2023-03-13T19:10:24.706Z,96234.00
2023-03-13T19:14:29.470Z,96214.94
2023-03-13T19:18:33.081Z,96216.75
2023-03-13T19:22:36.089Z,96203.53
2023-03-13T19:26:41.711Z,96198.94
2023-03-13T19:31:04.461Z,96184.28
2023-03-13T19:35:08.632Z,96164.25
2023-03-13T19:39:15.518Z,96154.03
2023-03-13T19:43:18.399Z,96145.56
2023-03-13T19:47:23.374Z,96142.97
2023-03-13T19:51:28.925Z,96128.75
2023-03-13T19:55:32.181Z,96125.13
2023-03-13T19:59:38.969Z,96115.13
2023-03-13T20:03:44.600Z,96105.91
2023-03-13T20:07:49.387Z,96106.09
2023-03-13T20:11:52.773Z,96091.66
2023-03-13T20:15:55.801Z,96085.66
2023-03-13T20:20:02.048Z,96075.59
2023-03-13T20:24:05.573Z,96065.97
2023-03-13T20:28:09.249Z,96054.56
2023-03-13T20:32:13.442Z,96048.31
2023-03-13T20:36:20.211Z,96049.06
2023-03-13T20:40:23.180Z,96062.44
2023-03-13T20:44:26.520Z,96068.44
2023-03-13T20:48:30.220Z,96062.22
2023-03-13T20:52:34.833Z,96046.41
2023-03-13T20:56:41.341Z,96031.41
2023-03-13T21:00:45.157Z,96010.56
2023-03-13T21:04:48.166Z,96008.94
2023-03-13T21:08:52.782Z,95988.53
2023-03-13T21:12:56.285Z,95984.31
2023-03-13T21:16:59.444Z,95983.31
2023-03-13T21:21:05.957Z,95979.31
2023-03-13T21:25:13.403Z,95991.31
2023-03-13T21:29:16.256Z,95981.94
2023-03-13T21:33:22.377Z,95981.94
2023-03-13T21:41:31.035Z,95975.31
2023-03-13T21:45:34.711Z,95980.50
2023-03-13T21:49:37.838Z,95972.66
2023-03-13T21:53:42.290Z,95967.63
2023-03-13T21:57:46.957Z,95965.59
2023-03-13T22:01:50.154Z,95955.94
2023-03-13T22:05:53.630Z,95957.50
2023-03-13T22:09:56.787Z,95941.47
2023-03-13T22:14:01.655Z,95943.84
2023-03-13T22:18:05.018Z,95926.25
2023-03-13T22:22:08.585Z,95924.66
2023-03-13T22:26:12.436Z,95922.25
2023-03-13T22:30:17.182Z,95932.00
2023-03-13T22:34:20.189Z,95931.81
2023-03-13T22:38:24.225Z,95929.34
2023-03-13T22:42:27.111Z,95943.69
2023-03-13T22:46:31.869Z,95931.28
2023-03-13T22:50:35.238Z,95912.81
2023-03-13T22:54:38.568Z,95893.28
2023-03-13T22:58:42.442Z,95880.69
2023-03-13T23:02:47.214Z,95881.25
2023-03-13T23:06:50.346Z,95881.59
2023-03-13T23:10:53.888Z,95880.75
2023-03-13T23:14:59.597Z,95882.13
2023-03-13T23:19:05.247Z,95879.06
2023-03-13T23:23:08.189Z,95876.22
2023-03-13T23:27:11.635Z,95868.59
2023-03-13T23:31:16.907Z,95854.97
2023-03-13T23:35:22.379Z,95837.34
2023-03-13T23:39:25.602Z,95844.50
2023-03-13T23:43:28.852Z,95847.28
2023-03-13T23:47:31.811Z,95840.25
2023-03-13T23:51:36.403Z,95856.47
2023-03-13T23:55:41.829Z,95858.88
2023-03-13T23:59:45.229Z,95865.88
